Time;durP1;ratioP1;P1;durP2;ratioP2;P2;SDS_P1;SDS_P2;PMS_P1;PMS_P2;Temp;Humidity;BMP_temperature;BMP_pressure;BME280_temperature;BME280_humidity;BME280_pressure;Samples;Min_cycle;Max_cycle;Signal;HPM_P1;HPM_P2
2022/09/27 00:01:01;;;;;;;14.90;9.50;;;20.80;92.70;;;;;;5049642;28;20028;-62
2022/09/27 00:03:29;;;;;;;15.10;10.18;;;20.80;92.50;;;;;;5048559;28;20474;-66
2022/09/27 00:06:36;;;;;;;16.92;10.90;;;20.90;92.90;;;;;;5048518;28;20017;-67
2022/09/27 00:09:03;;;;;;;17.55;9.57;;;20.90;91.50;;;;;;5038978;28;20084;-68
2022/09/27 00:11:36;;;;;;;15.05;9.45;;;20.70;92.50;;;;;;5053496;28;20112;-67
2022/09/27 00:14:04;;;;;;;12.75;8.55;;;20.70;92.20;;;;;;5047358;28;21237;-67
2022/09/27 00:16:35;;;;;;;13.45;9.10;;;20.90;92.40;;;;;;5046018;28;20025;-68
2022/09/27 00:19:06;;;;;;;12.95;7.55;;;21.00;92.10;;;;;;5042275;28;20151;-68
2022/09/27 00:21:33;;;;;;;14.02;7.07;;;21.30;90.70;;;;;;5039986;28;20026;-67
2022/09/27 00:24:01;;;;;;;21.90;8.68;;;21.50;90.60;;;;;;5046178;28;20029;-67
2022/09/27 00:26:28;;;;;;;17.95;9.55;;;21.30;90.10;;;;;;5050582;28;20473;-67
2022/09/27 00:28:56;;;;;;;17.52;10.13;;;21.10;90.80;;;;;;5049173;28;20501;-67
2022/09/27 00:31:29;;;;;;;11.95;8.27;;;21.00;91.00;;;;;;5049067;28;20021;-67
2022/09/27 00:34:01;;;;;;;13.10;7.18;;;20.90;91.00;;;;;;5041230;28;20025;-67
2022/09/27 00:36:29;;;;;;;11.05;8.00;;;21.00;91.40;;;;;;5033009;28;20025;-68
2022/09/27 00:38:58;;;;;;;10.43;7.35;;;21.10;91.10;;;;;;5069223;28;20024;-67
2022/09/27 00:41:31;;;;;;;10.23;6.07;;;21.00;91.10;;;;;;5056015;28;20363;-67
2022/09/27 00:44:03;;;;;;;6.63;5.57;;;21.00;90.40;;;;;;5045578;28;20154;-67
2022/09/27 00:46:38;;;;;;;8.13;5.90;;;20.90;90.10;;;;;;5052815;28;20024;-66
2022/09/27 00:49:15;;;;;;;11.10;6.20;;;20.90;88.40;;;;;;5049022;28;20138;-67
2022/09/27 00:51:45;;;;;;;15.15;7.15;;;20.70;90.30;;;;;;5047914;28;20032;-67
2022/09/27 00:54:14;;;;;;;10.55;6.20;;;20.50;90.20;;;;;;5047729;28;20035;-66
2022/09/27 00:56:42;;;;;;;9.95;5.35;;;20.40;90.40;;;;;;5049008;28;20021;-67
2022/09/27 00:59:24;;;;;;;11.02;6.13;;;20.40;91.10;;;;;;5044743;28;20048;-67
2022/09/27 01:01:51;;;;;;;9.93;6.20;;;20.30;90.40;;;;;;5048180;28;20043;-67
2022/09/27 01:04:23;;;;;;;11.07;6.72;;;20.50;90.60;;;;;;5048172;28;20100;-67
2022/09/27 01:06:52;;;;;;;9.32;6.20;;;20.60;90.30;;;;;;5055826;28;20029;-68
2022/09/27 01:09:20;;;;;;;9.55;6.00;;;20.80;89.70;;;;;;5047280;28;20029;-68
2022/09/27 01:12:01;;;;;;;11.80;5.90;;;20.90;89.70;;;;;;5044407;28;20111;-68
2022/09/27 01:14:55;;;;;;;10.88;5.55;;;21.00;90.70;;;;;;5041915;28;20397;-67
2022/09/27 01:17:40;;;;;;;13.35;6.55;;;21.40;89.70;;;;;;5045296;28;20033;-67
2022/09/27 01:20:30;;;;;;;10.02;6.20;;;21.70;88.70;;;;;;5042623;28;20028;-67
2022/09/27 01:23:17;;;;;;;11.48;6.50;;;22.20;87.30;;;;;;5048206;28;20020;-67
2022/09/27 01:25:44;;;;;;;10.00;4.93;;;22.50;87.30;;;;;;5044175;28;20026;-68
2022/09/27 01:28:48;;;;;;;10.13;5.25;;;22.70;80.40;;;;;;5053604;28;20142;-68
2022/09/27 01:31:32;;;;;;;9.88;5.07;;;22.70;79.20;;;;;;5041278;28;20029;-68
2022/09/27 01:34:05;;;;;;;8.80;5.63;;;22.70;81.10;;;;;;5048847;28;20095;-67
2022/09/27 01:36:44;;;;;;;11.00;5.00;;;22.80;78.30;;;;;;5049751;28;20393;-65
2022/09/27 01:39:17;;;;;;;7.80;4.68;;;22.90;79.70;;;;;;5053491;28;20032;-67
2022/09/27 01:42:02;;;;;;;10.05;5.10;;;22.70;80.50;;;;;;5053118;28;20477;-67
2022/09/27 01:44:52;;;;;;;12.40;4.35;;;22.50;79.40;;;;;;5046848;28;20025;-67
2022/09/27 01:47:32;;;;;;;15.00;5.05;;;22.40;80.70;;;;;;5055484;28;20031;-67
2022/09/27 01:50:07;;;;;;;7.90;4.43;;;22.50;78.60;;;;;;5058889;28;20053;-67
2022/09/27 01:53:06;;;;;;;9.82;4.28;;;22.50;80.40;;;;;;5046841;28;20036;-67
2022/09/27 01:55:37;;;;;;;7.45;4.00;;;22.80;79.90;;;;;;5047160;28;20064;-67
2022/09/27 01:58:16;;;;;;;10.18;5.47;;;22.90;79.60;;;;;;5050784;28;20029;-68
2022/09/27 02:00:46;;;;;;;11.68;4.75;;;22.90;79.30;;;;;;5048670;28;20327;-68
2022/09/27 02:03:24;;;;;;;10.10;4.55;;;22.90;78.90;;;;;;5047108;28;20040;-67
2022/09/27 02:06:18;;;;;;;7.30;3.90;;;23.00;77.50;;;;;;5059484;28;20720;-67
2022/09/27 02:09:00;;;;;;;10.88;4.75;;;23.30;79.50;;;;;;5052626;28;20025;-72
2022/09/27 02:11:27;;;;;;;12.75;4.85;;;23.50;75.60;;;;;;5049406;28;20512;-66
2022/09/27 02:14:04;;;;;;;8.35;4.10;;;23.20;73.90;;;;;;5048863;28;20033;-68
2022/09/27 02:16:53;;;;;;;7.18;3.83;;;23.20;75.80;;;;;;5050642;28;20028;-68
2022/09/27 02:20:17;;;;;;;12.40;4.97;;;23.50;77.20;;;;;;5042495;28;20105;-67
2022/09/27 02:23:14;;;;;;;7.93;4.55;;;23.90;77.80;;;;;;5045708;28;20316;-68
2022/09/27 02:26:05;;;;;;;8.07;3.92;;;24.40;70.30;;;;;;5046016;28;20029;-69
2022/09/27 02:28:41;;;;;;;8.00;4.07;;;24.60;69.70;;;;;;5046443;28;20553;-68
2022/09/27 02:31:09;;;;;;;7.85;4.18;;;24.40;70.30;;;;;;5046927;28;20458;-68
2022/09/27 02:33:40;;;;;;;6.07;3.20;;;24.00;70.80;;;;;;5060614;28;20475;-67
2022/09/27 02:36:08;;;;;;;5.97;2.85;;;23.80;70.70;;;;;;5055168;28;20036;-68
2022/09/27 02:38:35;;;;;;;9.00;3.40;;;24.00;72.40;;;;;;5053637;28;20082;-69
2022/09/27 02:41:03;;;;;;;6.70;3.55;;;24.30;73.00;;;;;;5049676;28;20028;-67
2022/09/27 02:43:32;;;;;;;11.13;4.20;;;24.50;72.30;;;;;;5051882;28;20017;-67
2022/09/27 02:46:15;;;;;;;5.85;3.28;;;24.80;68.90;;;;;;5058591;28;20029;-67
2022/09/27 02:49:09;;;;;;;3.45;2.67;;;24.80;68.90;;;;;;5050001;28;20049;-67
2022/09/27 02:52:21;;;;;;;4.63;3.03;;;24.80;65.70;;;;;;5046085;28;20029;-66
2022/09/27 02:55:09;;;;;;;4.47;2.58;;;24.80;67.20;;;;;;5049030;28;20551;-67
2022/09/27 02:58:00;;;;;;;8.50;3.22;;;24.80;67.90;;;;;;5049140;28;20025;-67
2022/09/27 03:00:48;;;;;;;6.53;3.10;;;24.90;67.60;;;;;;5046245;28;20485;-66
2022/09/27 03:03:16;;;;;;;4.05;2.38;;;25.00;68.20;;;;;;5048114;28;20056;-67
2022/09/27 03:06:00;;;;;;;3.15;2.10;;;24.90;66.30;;;;;;5046998;28;20469;-66
2022/09/27 03:08:27;;;;;;;5.00;3.20;;;24.90;62.80;;;;;;5052121;28;20043;-66
2022/09/27 03:10:54;;;;;;;5.07;2.90;;;24.90;65.70;;;;;;5051668;28;20634;-66
2022/09/27 03:13:22;;;;;;;7.78;2.90;;;24.70;64.40;;;;;;5048938;28;20013;-66
2022/09/27 03:15:49;;;;;;;5.80;2.25;;;24.40;65.50;;;;;;5049904;28;20485;-67
2022/09/27 03:18:16;;;;;;;2.63;1.58;;;24.20;64.10;;;;;;5063898;28;20020;-67
2022/09/27 03:20:44;;;;;;;2.67;1.75;;;24.10;62.60;;;;;;5053847;28;20032;-67
2022/09/27 03:23:11;;;;;;;3.65;1.70;;;24.20;63.10;;;;;;5054975;28;20016;-66
2022/09/27 03:25:39;;;;;;;3.33;1.85;;;24.40;63.40;;;;;;5045905;28;20111;-67
2022/09/27 03:28:07;;;;;;;1.80;1.30;;;24.50;63.30;;;;;;5059976;28;20396;-66
2022/09/27 03:30:34;;;;;;;3.92;1.60;;;24.60;62.50;;;;;;5045525;28;20039;-66
2022/09/27 03:33:02;;;;;;;6.28;2.25;;;24.60;60.90;;;;;;5050018;28;20678;-66
2022/09/27 03:35:29;;;;;;;4.15;1.70;;;24.30;62.00;;;;;;5056912;28;20024;-66
2022/09/27 03:37:56;;;;;;;2.80;1.65;;;24.00;64.20;;;;;;5059046;28;20025;-66
2022/09/27 03:40:24;;;;;;;3.35;1.70;;;23.80;65.00;;;;;;5047657;28;20382;-67
2022/09/27 03:42:51;;;;;;;4.82;2.22;;;23.60;64.70;;;;;;5049910;28;20056;-66
2022/09/27 03:45:18;;;;;;;4.43;1.90;;;23.30;65.50;;;;;;5042193;28;20021;-67
2022/09/27 03:47:46;;;;;;;9.43;2.15;;;23.10;67.10;;;;;;5059079;28;20028;-66
2022/09/27 03:50:14;;;;;;;4.78;2.38;;;22.80;74.60;;;;;;5042721;28;20067;-65
2022/09/27 03:52:43;;;;;;;6.25;2.33;;;22.40;80.50;;;;;;5060520;28;20024;-65
2022/09/27 03:55:11;;;;;;;3.60;2.05;;;21.90;83.90;;;;;;5065245;28;20088;-67
2022/09/27 03:57:39;;;;;;;4.50;2.20;;;21.30;87.70;;;;;;5058134;28;20016;-67
2022/09/27 04:00:07;;;;;;;4.50;2.22;;;20.90;89.40;;;;;;5056658;28;20032;-67
2022/09/27 04:02:34;;;;;;;3.97;2.08;;;20.50;92.00;;;;;;5073819;28;20032;-66
2022/09/27 04:05:02;;;;;;;3.75;2.63;;;20.20;92.70;;;;;;5052538;28;20560;-66
2022/09/27 04:07:29;;;;;;;4.38;2.10;;;19.90;93.40;;;;;;5055567;28;20021;-67
2022/09/27 04:09:57;;;;;;;3.53;1.75;;;19.70;93.40;;;;;;5049390;28;20596;-66
2022/09/27 04:12:24;;;;;;;4.38;2.00;;;19.50;93.10;;;;;;5050637;28;20111;-66
2022/09/27 04:14:51;;;;;;;3.67;1.85;;;19.40;94.10;;;;;;5051163;28;20082;-67
2022/09/27 04:17:18;;;;;;;3.67;1.77;;;19.30;93.80;;;;;;5049953;28;20013;-66
2022/09/27 04:19:46;;;;;;;5.38;2.00;;;19.30;94.30;;;;;;5051100;28;20033;-65
2022/09/27 04:22:14;;;;;;;5.13;1.65;;;19.30;95.90;;;;;;5051516;28;20028;-65
2022/09/27 04:24:44;;;;;;;5.15;2.40;;;19.20;95.60;;;;;;5051615;28;20040;-65
2022/09/27 04:27:11;;;;;;;5.90;2.35;;;19.30;96.90;;;;;;5049497;28;20079;-65
2022/09/27 04:29:42;;;;;;;7.38;2.85;;;19.30;97.80;;;;;;5052328;28;20071;-66
2022/09/27 04:32:09;;;;;;;10.30;3.40;;;19.40;99.40;;;;;;5046211;28;20040;-66
2022/09/27 04:37:22;;;;;;;7.38;3.50;;;20.20;99.90;;;;;;5040754;28;20150;-66
2022/09/27 04:39:49;;;;;;;8.57;3.40;;;20.50;99.40;;;;;;5058890;28;20044;-68
2022/09/27 04:42:17;;;;;;;5.75;2.38;;;20.80;99.20;;;;;;5052176;28;20029;-65
2022/09/27 04:44:46;;;;;;;5.65;2.20;;;21.00;99.70;;;;;;5065557;28;20025;-66
2022/09/27 04:47:17;;;;;;;12.35;2.90;;;21.30;98.10;;;;;;5052482;28;20039;-67
2022/09/27 04:49:44;;;;;;;3.95;1.65;;;21.50;97.70;;;;;;5056946;28;20057;-68
2022/09/27 04:52:11;;;;;;;4.80;1.70;;;21.50;94.30;;;;;;5052790;28;20052;-68
2022/09/27 04:54:39;;;;;;;6.90;2.00;;;21.50;95.80;;;;;;5047823;28;20107;-68
2022/09/27 04:57:06;;;;;;;3.80;1.98;;;21.30;94.00;;;;;;5066026;28;20009;-68
2022/09/27 04:59:33;;;;;;;1.92;1.23;;;21.20;93.60;;;;;;5049052;28;21306;-68
2022/09/27 05:02:00;;;;;;;2.58;1.08;;;21.20;92.80;;;;;;5063084;28;20033;-68
2022/09/27 05:04:28;;;;;;;1.92;1.17;;;21.00;91.20;;;;;;5052683;28;20029;-67
2022/09/27 05:06:56;;;;;;;3.45;1.17;;;20.80;91.00;;;;;;5053815;28;20020;-67
2022/09/27 05:09:27;;;;;;;3.35;1.17;;;20.40;90.90;;;;;;5055277;28;20087;-67
2022/09/27 05:11:54;;;;;;;1.95;1.30;;;20.20;91.90;;;;;;5047757;28;20021;-67
2022/09/27 05:14:21;;;;;;;1.77;1.05;;;19.90;92.20;;;;;;5045285;28;20021;-68
2022/09/27 05:16:49;;;;;;;1.80;1.10;;;19.80;93.10;;;;;;5051623;28;20036;-67
2022/09/27 05:19:20;;;;;;;4.13;1.58;;;19.70;92.40;;;;;;5041446;28;20035;-68
2022/09/27 05:21:47;;;;;;;2.78;1.20;;;19.50;92.30;;;;;;5058085;28;20028;-65
2022/09/27 05:24:15;;;;;;;2.08;1.38;;;19.40;92.50;;;;;;5053100;28;20024;-66
2022/09/27 05:26:44;;;;;;;4.38;1.20;;;19.30;93.60;;;;;;5049231;28;20021;-67
2022/09/27 05:29:11;;;;;;;3.22;1.60;;;19.20;93.90;;;;;;5058520;28;20033;-67
2022/09/27 05:31:39;;;;;;;2.30;1.25;;;19.10;94.30;;;;;;5060772;28;20052;-67
2022/09/27 05:34:15;;;;;;;3.30;1.58;;;19.00;94.00;;;;;;5068882;28;20040;-67
2022/09/27 05:36:42;;;;;;;3.95;1.40;;;18.90;94.50;;;;;;5066033;28;20051;-67
2022/09/27 05:39:09;;;;;;;2.83;1.70;;;18.80;94.50;;;;;;5056542;28;20017;-68
2022/09/27 05:41:36;;;;;;;3.03;1.50;;;18.80;95.00;;;;;;5064105;28;20025;-68
2022/09/27 05:44:04;;;;;;;2.40;1.52;;;18.70;94.90;;;;;;5064083;28;20377;-67
2022/09/27 05:46:32;;;;;;;3.53;1.67;;;18.80;94.60;;;;;;5056551;28;20355;-66
2022/09/27 05:48:59;;;;;;;3.85;1.30;;;18.70;94.60;;;;;;5057798;28;20039;-65
2022/09/27 05:51:27;;;;;;;3.92;1.70;;;18.70;94.90;;;;;;5069695;28;20024;-65
2022/09/27 05:53:54;;;;;;;3.20;1.80;;;18.80;94.80;;;;;;5061383;28;20432;-66
2022/09/27 05:56:21;;;;;;;2.85;1.80;;;18.70;95.20;;;;;;5052385;28;20067;-66
2022/09/27 05:58:49;;;;;;;3.78;1.83;;;18.70;95.10;;;;;;5056457;28;20021;-66
2022/09/27 06:01:16;;;;;;;3.22;1.70;;;18.70;95.60;;;;;;5059092;28;20016;-66
2022/09/27 06:03:46;;;;;;;4.45;1.80;;;18.70;95.90;;;;;;5059466;28;20033;-67
2022/09/27 06:06:14;;;;;;;4.07;2.03;;;18.70;95.50;;;;;;5065000;28;20025;-65
2022/09/27 06:08:41;;;;;;;4.53;1.92;;;18.80;95.40;;;;;;5068065;28;20423;-65
2022/09/27 06:11:11;;;;;;;2.90;1.70;;;18.80;96.00;;;;;;5053717;28;20024;-65
2022/09/27 06:13:38;;;;;;;3.35;1.60;;;18.80;96.40;;;;;;5050757;28;20029;-67
2022/09/27 06:16:07;;;;;;;4.95;1.85;;;18.80;95.40;;;;;;5049671;28;20035;-65
2022/09/27 06:18:35;;;;;;;6.15;2.40;;;18.70;95.80;;;;;;5049967;28;20031;-65
2022/09/27 06:21:04;;;;;;;3.90;1.60;;;18.80;95.40;;;;;;5048623;28;20104;-65
2022/09/27 06:23:32;;;;;;;3.58;1.50;;;18.80;95.00;;;;;;5054541;28;20034;-65
2022/09/27 06:26:06;;;;;;;3.58;1.70;;;18.80;95.00;;;;;;5064059;28;20025;-66
2022/09/27 06:28:36;;;;;;;4.68;1.65;;;18.70;95.10;;;;;;5065828;28;20043;-66
2022/09/27 06:31:07;;;;;;;2.70;1.70;;;18.70;95.20;;;;;;5042616;28;20493;-65
2022/09/27 06:33:35;;;;;;;4.53;1.88;;;18.70;95.40;;;;;;5044944;28;20033;-65
2022/09/27 06:36:05;;;;;;;3.80;2.38;;;18.70;95.50;;;;;;5052961;28;20108;-65
2022/09/27 06:38:33;;;;;;;2.78;1.48;;;18.60;95.50;;;;;;5048695;28;20482;-64
2022/09/27 06:41:08;;;;;;;6.10;1.92;;;18.60;95.60;;;;;;5058022;28;20032;-65
2022/09/27 06:43:35;;;;;;;4.95;1.63;;;18.50;94.90;;;;;;5053739;28;20782;-64
2022/09/27 06:46:04;;;;;;;2.58;1.83;;;18.50;95.10;;;;;;5048815;28;20168;-65
2022/09/27 06:48:33;;;;;;;4.22;1.85;;;18.50;95.50;;;;;;5058396;28;20064;-64
2022/09/27 06:51:00;;;;;;;3.15;1.70;;;18.50;96.20;;;;;;5055119;28;20435;-66
2022/09/27 06:53:28;;;;;;;3.63;2.00;;;18.40;95.20;;;;;;5054890;28;20660;-64
2022/09/27 06:56:02;;;;;;;2.53;1.60;;;18.50;95.10;;;;;;5061608;28;20028;-65
2022/09/27 07:01:16;;;;;;;2.35;1.60;;;18.70;94.90;;;;;;5043271;28;20289;-64
2022/09/27 07:03:43;;;;;;;2.63;2.00;;;18.90;94.90;;;;;;5052364;28;20075;-65
2022/09/27 07:06:22;;;;;;;3.72;2.38;;;19.00;94.60;;;;;;5053295;28;20104;-65
2022/09/27 07:08:51;;;;;;;6.45;2.17;;;19.20;94.10;;;;;;5046409;28;20068;-64
2022/09/27 07:11:19;;;;;;;4.28;2.30;;;19.40;93.90;;;;;;5061720;28;20021;-64
2022/09/27 07:13:47;;;;;;;5.00;2.05;;;19.50;93.80;;;;;;5054612;28;20028;-65
2022/09/27 07:16:14;;;;;;;9.27;2.13;;;19.50;93.30;;;;;;5055725;28;20468;-65
2022/09/27 07:18:42;;;;;;;5.97;2.13;;;19.50;93.60;;;;;;5054928;28;20021;-66
2022/09/27 07:21:11;;;;;;;5.47;2.03;;;19.40;93.70;;;;;;5062950;28;20439;-65
2022/09/27 07:23:38;;;;;;;2.72;1.60;;;19.30;93.30;;;;;;5062005;28;20032;-64
2022/09/27 07:26:07;;;;;;;2.95;1.85;;;19.30;93.70;;;;;;5058909;28;20032;-63
2022/09/27 07:28:34;;;;;;;3.50;1.75;;;19.20;93.60;;;;;;5046704;28;20075;-63
2022/09/27 07:31:02;;;;;;;4.05;1.88;;;19.00;93.90;;;;;;5051604;28;20034;-63
2022/09/27 07:33:30;;;;;;;3.60;1.83;;;19.00;93.90;;;;;;5044857;28;20022;-63
2022/09/27 07:35:58;;;;;;;3.28;1.40;;;18.90;94.00;;;;;;5045595;28;20025;-63
2022/09/27 07:38:25;;;;;;;3.38;2.00;;;18.80;94.50;;;;;;5041682;28;20018;-61
2022/09/27 07:40:53;;;;;;;4.60;2.28;;;18.60;94.90;;;;;;5048071;28;20044;-63
2022/09/27 07:43:20;;;;;;;4.38;1.90;;;18.40;95.40;;;;;;5043778;28;20378;-62
2022/09/27 07:45:47;;;;;;;4.00;1.83;;;18.30;95.90;;;;;;5040897;28;20505;-60
2022/09/27 07:48:15;;;;;;;4.97;2.35;;;18.00;96.20;;;;;;5049344;28;20055;-60
2022/09/27 07:50:43;;;;;;;5.57;2.38;;;17.90;96.40;;;;;;5051280;28;20146;-59
2022/09/27 07:53:12;;;;;;;2.85;1.65;;;17.70;97.10;;;;;;5051678;28;20028;-60
2022/09/27 07:55:41;;;;;;;3.45;2.13;;;17.70;96.00;;;;;;5045251;28;20045;-60
2022/09/27 07:58:11;;;;;;;4.57;2.53;;;17.60;96.30;;;;;;5044177;28;20024;-60
2022/09/27 08:00:39;;;;;;;6.75;2.33;;;17.50;96.90;;;;;;5049308;28;20086;-60
2022/09/27 08:03:14;;;;;;;5.18;2.17;;;17.30;97.30;;;;;;5046519;28;20025;-60
2022/09/27 08:05:47;;;;;;;5.38;2.53;;;17.10;97.80;;;;;;5045360;28;20485;-59
2022/09/27 08:08:15;;;;;;;4.30;1.95;;;17.10;97.70;;;;;;5045606;28;20029;-59
2022/09/27 08:10:45;;;;;;;5.65;2.10;;;17.00;98.10;;;;;;5049964;28;20036;-59
2022/09/27 08:13:13;;;;;;;4.95;2.50;;;17.00;98.30;;;;;;5040909;28;20075;-59
2022/09/27 08:15:40;;;;;;;8.20;2.47;;;17.00;98.20;;;;;;5049495;28;20037;-59
2022/09/27 08:18:08;;;;;;;4.32;2.42;;;16.90;98.60;;;;;;5049349;28;20028;-58
2022/09/27 08:20:36;;;;;;;5.57;2.28;;;16.80;98.80;;;;;;5051189;28;20039;-59
2022/09/27 08:23:03;;;;;;;6.00;2.90;;;16.80;98.80;;;;;;5066822;28;20008;-59
2022/09/27 08:25:30;;;;;;;3.35;2.38;;;16.70;99.30;;;;;;5041603;28;20729;-59
2022/09/27 08:28:03;;;;;;;4.78;2.40;;;16.60;99.30;;;;;;5054958;28;20070;-60
2022/09/27 08:30:31;;;;;;;6.00;2.80;;;16.60;99.50;;;;;;5049299;28;20037;-59
2022/09/27 08:33:02;;;;;;;5.22;2.90;;;16.60;99.70;;;;;;5052668;28;20534;-58
2022/09/27 08:35:30;;;;;;;7.15;3.05;;;16.60;99.60;;;;;;5050157;28;20052;-58
2022/09/27 08:38:00;;;;;;;3.20;2.30;;;16.50;99.70;;;;;;5048752;28;20017;-61
2022/09/27 08:40:39;;;;;;;4.60;2.72;;;16.50;99.70;;;;;;5047064;28;20016;-60
2022/09/27 08:43:59;;;;;;;5.75;2.65;;;16.40;99.80;;;;;;5047461;28;20079;-58
2022/09/27 08:47:08;;;;;;;5.55;3.05;;;16.40;99.90;;;;;;5019257;28;20105;-58
2022/09/27 08:49:50;;;;;;;5.57;2.95;;;16.40;99.70;;;;;;5015759;28;20065;-58
2022/09/27 08:52:22;;;;;;;;;;;16.20;99.80;;;;;;5047848;28;20052;-59
2022/09/27 08:54:51;;;;;;;9.80;3.13;;;16.10;99.90;;;;;;5047802;28;20390;-58
2022/09/27 08:57:18;;;;;;;5.50;3.05;;;16.00;99.90;;;;;;5046246;28;20132;-59
2022/09/27 09:00:07;;;;;;;6.80;3.45;;;15.90;99.90;;;;;;5039812;28;20060;-59
2022/09/27 09:02:35;;;;;;;6.25;3.20;;;15.80;99.90;;;;;;5046870;28;20084;-59
2022/09/27 09:05:14;;;;;;;13.15;5.95;;;15.80;99.90;;;;;;5042209;28;20052;-57
2022/09/27 09:08:11;;;;;;;16.10;7.70;;;15.80;99.90;;;;;;5045311;28;20029;-57
2022/09/27 09:14:14;;;;;;;7.75;4.22;;;15.70;99.90;;;;;;5026727;28;20119;-58
2022/09/27 09:16:52;;;;;;;6.45;4.43;;;15.70;99.90;;;;;;5048098;28;20032;-59
2022/09/27 09:19:55;;;;;;;8.35;3.70;;;15.80;99.90;;;;;;5051951;28;20434;-57
2022/09/27 09:22:29;;;;;;;7.65;3.90;;;15.80;99.90;;;;;;5047189;28;20029;-58
2022/09/27 09:25:47;;;;;;;6.90;3.72;;;15.80;99.90;;;;;;5044437;28;20021;-58
2022/09/27 09:28:58;;;;;;;5.63;3.65;;;15.90;99.90;;;;;;5031073;28;20037;-58
2022/09/27 09:32:05;;;;;;;8.85;3.78;;;15.80;99.90;;;;;;5039615;28;20041;-59
2022/09/27 09:34:56;;;;;;;6.65;3.58;;;15.80;99.90;;;;;;5038737;28;20668;-59
2022/09/27 09:37:58;;;;;;;6.10;3.03;;;15.90;99.90;;;;;;5044715;28;20021;-59
2022/09/27 09:40:41;;;;;;;6.00;3.28;;;15.80;99.90;;;;;;5041100;28;20044;-58
2022/09/27 09:43:24;;;;;;;4.18;2.45;;;15.70;99.90;;;;;;5055668;28;20036;-58
2022/09/27 09:46:18;;;;;;;4.13;3.05;;;15.80;99.90;;;;;;5051741;28;20032;-59
2022/09/27 09:48:57;;;;;;;6.50;2.83;;;15.90;99.90;;;;;;5051027;28;20053;-59
2022/09/27 09:51:34;;;;;;;9.75;3.45;;;15.80;99.90;;;;;;5047116;28;20032;-58
2022/09/27 09:54:13;;;;;;;4.80;3.53;;;15.90;99.90;;;;;;5056500;28;20028;-59
2022/09/27 09:56:52;;;;;;;6.93;3.35;;;16.00;99.90;;;;;;5045502;28;20029;-60
2022/09/27 09:59:34;;;;;;;6.63;3.55;;;16.00;99.90;;;;;;5046636;28;20020;-59
2022/09/27 10:02:27;;;;;;;5.15;3.08;;;16.00;99.90;;;;;;5048177;28;20087;-59
2022/09/27 10:04:54;;;;;;;6.55;3.40;;;16.00;99.90;;;;;;5058260;28;20025;-58
2022/09/27 10:07:23;;;;;;;5.15;2.78;;;16.10;99.90;;;;;;5048825;28;20029;-59
2022/09/27 10:09:54;;;;;;;5.03;2.47;;;16.20;99.90;;;;;;5046031;28;20102;-58
2022/09/27 10:12:21;;;;;;;5.88;2.88;;;16.20;99.90;;;;;;5035448;28;20106;-55
2022/09/27 10:14:51;;;;;;;4.07;2.53;;;16.20;99.90;;;;;;5040250;28;20659;-60
2022/09/27 10:17:23;;;;;;;5.97;2.58;;;16.30;99.80;;;;;;5052300;28;20725;-58
2022/09/27 10:19:54;;;;;;;6.60;2.65;;;16.30;99.00;;;;;;5040612;28;20539;-59
2022/09/27 10:22:38;;;;;;;5.53;2.65;;;16.30;98.50;;;;;;5051088;28;20401;-58
2022/09/27 10:25:08;;;;;;;4.82;2.15;;;16.20;98.70;;;;;;5051873;28;20082;-58
2022/09/27 10:27:47;;;;;;;5.00;2.40;;;16.00;99.00;;;;;;5050823;28;20041;-58
2022/09/27 10:30:27;;;;;;;4.53;2.28;;;15.90;99.40;;;;;;5049770;28;20063;-59
2022/09/27 10:33:05;;;;;;;6.50;2.42;;;15.80;99.90;;;;;;5064480;28;20026;-59
2022/09/27 10:35:35;;;;;;;4.78;2.30;;;15.80;99.70;;;;;;5052768;28;20048;-59
2022/09/27 10:38:32;;;;;;;5.95;2.70;;;15.70;99.80;;;;;;5049269;28;20369;-58
2022/09/27 10:41:31;;;;;;;5.07;2.60;;;15.50;99.90;;;;;;5048322;28;20033;-61
2022/09/27 10:44:18;;;;;;;6.78;3.38;;;15.30;99.90;;;;;;5049079;28;20359;-58
2022/09/27 10:46:49;;;;;;;11.02;3.83;;;15.10;99.90;;;;;;5050296;28;20044;-59
2022/09/27 10:49:40;;;;;;;6.43;2.58;;;14.90;99.90;;;;;;5044522;28;20382;-59
2022/09/27 10:52:27;;;;;;;4.82;2.45;;;14.80;99.90;;;;;;5041164;28;20052;-59
2022/09/27 10:55:08;;;;;;;6.38;2.80;;;14.70;99.90;;;;;;5043809;28;20066;-59
2022/09/27 10:57:35;;;;;;;6.20;2.80;;;14.60;99.90;;;;;;5046436;28;20017;-59
2022/09/27 11:00:24;;;;;;;6.75;3.03;;;14.80;99.90;;;;;;5040811;28;20349;-60
2022/09/27 11:03:27;;;;;;;10.43;4.07;;;14.90;99.90;;;;;;5053414;28;20112;-59
2022/09/27 11:05:55;;;;;;;9.57;6.32;;;15.00;99.90;;;;;;5042510;28;20037;-59
2022/09/27 11:08:25;;;;;;;11.70;5.00;;;15.00;99.90;;;;;;5049474;28;20051;-59
2022/09/27 11:11:05;;;;;;;8.25;4.22;;;15.10;99.90;;;;;;5050956;28;20548;-59
2022/09/27 11:13:34;;;;;;;8.52;3.28;;;15.10;99.90;;;;;;5047507;28;20024;-59
2022/09/27 11:16:16;;;;;;;7.88;4.18;;;15.10;99.90;;;;;;5049822;28;20033;-59
2022/09/27 11:19:25;;;;;;;6.80;4.00;;;15.10;99.90;;;;;;5052226;28;20475;-59
2022/09/27 11:22:32;;;;;;;9.82;4.13;;;15.20;99.90;;;;;;5050992;28;20028;-58
2022/09/27 11:25:17;;;;;;;7.47;4.20;;;15.20;99.90;;;;;;5066805;28;20060;-59
2022/09/27 11:28:16;;;;;;;;;;;15.30;99.90;;;;;;5050666;28;20036;-59
2022/09/27 11:31:04;;;;;;;9.13;3.22;;;15.20;99.90;;;;;;5037610;28;19923;-59
2022/09/27 11:34:02;;;;;;;10.30;3.17;;;15.10;99.90;;;;;;5066291;28;20029;-59
2022/09/27 11:36:45;;;;;;;7.10;3.90;;;15.10;99.90;;;;;;5035288;28;20040;-60
2022/09/27 11:39:36;;;;;;;12.93;3.90;;;15.10;99.90;;;;;;5047961;28;20028;-59
2022/09/27 11:42:41;;;;;;;5.88;3.38;;;14.90;99.90;;;;;;5057364;28;20072;-59
2022/09/27 11:45:22;;;;;;;6.43;3.00;;;14.80;99.90;;;;;;5034590;28;20029;-59
2022/09/27 11:48:05;;;;;;;8.60;3.42;;;14.70;99.90;;;;;;5055815;28;20512;-59
2022/09/27 11:50:50;;;;;;;4.43;2.70;;;14.50;99.90;;;;;;5046325;28;20041;-59
2022/09/27 11:53:43;;;;;;;6.18;3.25;;;14.50;99.90;;;;;;5063873;28;20055;-60
2022/09/27 11:56:39;;;;;;;8.32;3.40;;;14.40;99.90;;;;;;5043304;28;20037;-64
2022/09/27 11:59:44;;;;;;;9.43;4.00;;;14.40;99.90;;;;;;5050246;28;20451;-59
2022/09/27 12:02:38;;;;;;;5.78;3.72;;;14.30;99.90;;;;;;5049892;28;20473;-59
2022/09/27 12:05:39;;;;;;;9.38;4.90;;;14.30;99.90;;;;;;5053470;28;20040;-59
2022/09/27 12:08:43;;;;;;;5.70;3.30;;;14.30;99.90;;;;;;5051311;28;20106;-59
2022/09/27 12:11:37;;;;;;;8.50;3.47;;;14.30;99.90;;;;;;5044940;28;20057;-59
2022/09/27 12:14:19;;;;;;;6.35;3.95;;;14.40;99.90;;;;;;5058262;28;20055;-58
2022/09/27 12:16:49;;;;;;;7.45;3.33;;;14.40;99.90;;;;;;5062944;28;20035;-58
2022/09/27 12:19:31;;;;;;;7.47;4.00;;;14.50;99.90;;;;;;5065432;28;20085;-60
2022/09/27 12:22:03;;;;;;;14.48;3.85;;;14.60;99.90;;;;;;5057805;28;20151;-62
2022/09/27 12:24:31;;;;;;;8.63;3.80;;;14.70;99.90;;;;;;5056151;28;20078;-60
2022/09/27 12:27:22;;;;;;;9.88;4.25;;;14.70;99.90;;;;;;5064575;28;20451;-59
2022/09/27 12:29:52;;;;;;;11.15;3.05;;;14.70;99.90;;;;;;5050579;28;20048;-60
2022/09/27 12:32:31;;;;;;;5.20;3.15;;;14.70;99.90;;;;;;5059674;28;20020;-59
2022/09/27 12:35:26;;;;;;;10.63;4.00;;;14.70;99.90;;;;;;5051272;28;20020;-59
2022/09/27 12:38:26;;;;;;;6.20;3.30;;;14.60;99.90;;;;;;5060989;28;20376;-59
2022/09/27 12:40:57;;;;;;;5.32;3.22;;;14.60;99.90;;;;;;5036388;28;20077;-60
2022/09/27 12:43:27;;;;;;;9.63;4.20;;;14.50;99.90;;;;;;5035043;28;20073;-60
2022/09/27 12:46:12;;;;;;;7.88;3.67;;;14.50;99.90;;;;;;5066440;28;20063;-60
2022/09/27 12:49:06;;;;;;;6.00;3.50;;;14.50;99.90;;;;;;5054395;28;20049;-59
2022/09/27 12:51:58;;;;;;;5.75;3.63;;;14.50;99.90;;;;;;5049238;28;20031;-59
2022/09/27 12:54:50;;;;;;;5.30;3.38;;;14.40;99.90;;;;;;5049160;28;20033;-60
2022/09/27 12:57:41;;;;;;;6.50;3.55;;;14.50;99.90;;;;;;5064548;28;20029;-59
2022/09/27 13:00:22;;;;;;;6.28;3.20;;;14.50;99.90;;;;;;5050477;28;20029;-59
2022/09/27 13:03:24;;;;;;;7.40;3.08;;;14.50;99.90;;;;;;5050597;28;20029;-60
2022/09/27 13:06:22;;;;;;;9.40;3.72;;;14.50;99.90;;;;;;5054381;28;20043;-59
2022/09/27 13:09:10;;;;;;;6.25;3.80;;;14.60;99.90;;;;;;5052466;28;20025;-60
2022/09/27 13:11:56;;;;;;;5.38;3.20;;;14.60;99.90;;;;;;5047870;28;20095;-59
2022/09/27 13:14:27;;;;;;;8.20;4.25;;;14.60;99.90;;;;;;5058745;28;20021;-60
2022/09/27 13:16:54;;;;;;;7.38;4.13;;;14.50;99.90;;;;;;5053042;28;20028;-59
2022/09/27 13:19:41;;;;;;;7.55;3.78;;;14.50;99.90;;;;;;5062023;28;20051;-59
2022/09/27 13:22:37;;;;;;;6.30;4.25;;;14.40;99.90;;;;;;5062288;28;20033;-59
2022/09/27 13:25:42;;;;;;;10.77;5.15;;;14.30;99.90;;;;;;5057452;28;20354;-60
2022/09/27 13:28:30;;;;;;;9.30;4.90;;;14.40;99.90;;;;;;5062205;28;20543;-60
2022/09/27 13:31:03;;;;;;;9.07;4.38;;;14.40;99.90;;;;;;5052733;28;20064;-60
2022/09/27 13:33:48;;;;;;;13.40;4.40;;;14.40;99.90;;;;;;5066325;28;20058;-60
2022/09/27 13:36:24;;;;;;;9.10;4.80;;;14.40;99.90;;;;;;5061449;28;20044;-61
2022/09/27 13:39:10;;;;;;;8.02;5.38;;;14.40;99.90;;;;;;5064503;28;20120;-59
2022/09/27 13:41:47;;;;;;;11.88;6.45;;;14.40;99.90;;;;;;5057033;28;20070;-59